Time,TemperatureF,DewpointF,PressureIn,WindDirection,WindDirectionDegrees,WindSpeedMPH,WindSpeedGustMPH,Humidity,HourlyPrecipIn,Conditions,Clouds,dailyrainin,SoftwareType,DateUTC
2013-09-15 00:01:00,38.5,37.5,30.08,WNW,287,0.0,0.0,96,0.00,,---,0.00,VWS V13.01,2013-09-15 04:01:00,
2013-09-15 00:02:00,38.5,37.5,30.08,WNW,287,0.0,0.0,96,0.00,,---,0.00,VWS V13.01,2013-09-15 04:02:00,
2013-09-15 00:06:00,38.5,37.5,30.08,WNW,287,0.0,0.0,96,0.00,,---,0.00,VWS V13.01,2013-09-15 04:06:00,
2013-09-15 00:07:00,38.5,37.5,30.08,WNW,287,0.0,0.0,96,0.00,,---,0.00,VWS V13.01,2013-09-15 04:07:00,
2013-09-15 00:09:00,38.5,37.5,30.08,WNW,287,0.0,0.0,96,0.00,,---,0.00,VWS V13.01,2013-09-15 04:09:00,
2013-09-15 00:10:00,38.5,37.5,30.08,WNW,287,0.0,0.0,96,0.00,,---,0.00,VWS V13.01,2013-09-15 04:10:00,
2013-09-15 00:15:00,38.6,37.6,30.08,WNW,287,0.0,0.0,96,0.00,,---,0.00,VWS V13.01,2013-09-15 04:15:00,
2013-09-15 00:20:00,38.7,37.7,30.08,WNW,287,0.0,0.0,96,0.00,,---,0.00,VWS V13.01,2013-09-15 04:20:00,
2013-09-15 00:25:00,38.5,37.5,30.08,WNW,287,0.0,0.0,96,0.00,,---,0.00,VWS V13.01,2013-09-15 04:25:00,
2013-09-15 00:30:00,38.3,37.3,30.08,WNW,287,0.0,0.0,96,0.00,,---,0.00,VWS V13.01,2013-09-15 04:30:00,
2013-09-15 00:35:00,38.3,37.3,30.07,WNW,287,0.0,0.0,96,0.00,,---,0.00,VWS V13.01,2013-09-15 04:35:00,
2013-09-15 00:40:00,38.2,37.2,30.08,WNW,287,0.0,0.0,96,0.00,,---,0.00,VWS V13.01,2013-09-15 04:40:00,
2013-09-15 00:45:00,38.2,37.2,30.08,WNW,287,0.0,0.0,96,0.00,,---,0.00,VWS V13.01,2013-09-15 04:45:00,
2013-09-15 00:50:00,38.2,37.2,30.08,WNW,287,0.0,0.0,96,0.00,,---,0.00,VWS V13.01,2013-09-15 04:50:00,
2013-09-15 00:55:00,38.4,37.4,30.08,WNW,287,0.0,0.0,96,0.00,,---,0.00,VWS V13.01,2013-09-15 04:55:00,
2013-09-15 01:00:00,38.2,37.2,30.07,WNW,287,0.0,0.0,96,0.00,,---,0.00,VWS V13.01,2013-09-15 05:00:00,
2013-09-15 01:05:00,38.1,37.1,30.08,WNW,287,0.0,0.0,96,0.00,,---,0.00,VWS V13.01,2013-09-15 05:05:00,
2013-09-15 01:11:00,37.9,36.9,30.08,WNW,287,0.0,0.0,96,0.00,,---,0.00,VWS V13.01,2013-09-15 05:11:00,
2013-09-15 01:16:00,38.0,37.0,30.09,WNW,287,0.0,0.0,96,0.00,,---,0.00,VWS V13.01,2013-09-15 05:16:00,
2013-09-15 01:21:00,38.2,37.4,30.09,WNW,287,0.0,0.0,97,0.00,,---,0.00,VWS V13.01,2013-09-15 05:21:00,
2013-09-15 01:26:00,38.7,37.7,30.09,WNW,287,0.0,0.0,96,0.00,,---,0.00,VWS V13.01,2013-09-15 05:26:00,
2013-09-15 01:31:00,39.3,38.5,30.08,WNW,287,0.0,1.0,97,0.00,,---,0.00,VWS V13.01,2013-09-15 05:31:00,
2013-09-15 01:36:00,39.7,38.9,30.08,WNW,287,0.0,1.0,97,0.00,,---,0.00,VWS V13.01,2013-09-15 05:36:00,
2013-09-15 01:41:00,39.7,38.9,30.09,WNW,287,0.0,1.0,97,0.00,,---,0.00,VWS V13.01,2013-09-15 05:41:00,
2013-09-15 01:46:00,39.3,38.5,30.09,WNW,287,0.0,1.0,97,0.00,,---,0.00,VWS V13.01,2013-09-15 05:46:00,
2013-09-15 01:51:00,39.1,38.3,30.08,WNW,287,0.0,1.0,97,0.00,,---,0.00,VWS V13.01,2013-09-15 05:51:00,
2013-09-15 01:56:00,38.9,38.1,30.08,WNW,287,0.0,1.0,97,0.00,,---,0.00,VWS V13.01,2013-09-15 05:56:00,
2013-09-15 02:01:00,39.0,38.2,30.08,WNW,287,0.0,0.0,97,0.00,,---,0.00,VWS V13.01,2013-09-15 06:01:00,
2013-09-15 02:06:00,39.4,38.6,30.08,WNW,287,0.0,0.0,97,0.00,,---,0.00,VWS V13.01,2013-09-15 06:06:00,
2013-09-15 02:11:00,39.7,38.9,30.09,WNW,287,0.0,0.0,97,0.00,,---,0.00,VWS V13.01,2013-09-15 06:11:00,
2013-09-15 02:17:00,39.9,39.1,30.08,WNW,287,0.0,0.0,97,0.00,,---,0.00,VWS V13.01,2013-09-15 06:17:00,
2013-09-15 02:22:00,40.2,39.4,30.09,WNW,287,0.0,0.0,97,0.00,,---,0.00,VWS V13.01,2013-09-15 06:22:00,
2013-09-15 02:27:00,40.3,39.5,30.09,WNW,287,0.0,0.0,97,0.00,,---,0.00,VWS V13.01,2013-09-15 06:27:00,
2013-09-15 02:32:00,40.4,39.6,30.09,WNW,287,0.0,1.0,97,0.00,,---,0.00,VWS V13.01,2013-09-15 06:32:00,
2013-09-15 02:37:00,40.5,39.7,30.09,WNW,287,0.0,1.0,97,0.00,,---,0.00,VWS V13.01,2013-09-15 06:37:00,
2013-09-15 02:42:00,40.4,39.6,30.08,WNW,287,0.0,1.0,97,0.00,,---,0.00,VWS V13.01,2013-09-15 06:42:00,
2013-09-15 02:47:00,40.5,39.7,30.08,WNW,287,0.0,1.0,97,0.00,,---,0.00,VWS V13.01,2013-09-15 06:47:00,
2013-09-15 02:52:00,40.7,39.9,30.08,WNW,287,0.0,1.0,97,0.00,,---,0.00,VWS V13.01,2013-09-15 06:52:00,
2013-09-15 02:57:00,40.6,39.8,30.08,WNW,287,0.0,1.0,97,0.00,,---,0.00,VWS V13.01,2013-09-15 06:57:00,
2013-09-15 03:02:00,40.6,39.8,30.08,WNW,287,0.0,0.0,97,0.00,,---,0.00,VWS V13.01,2013-09-15 07:02:00,
2013-09-15 03:07:00,40.6,39.8,30.08,WNW,287,0.0,0.0,97,0.00,,---,0.00,VWS V13.01,2013-09-15 07:07:00,
2013-09-15 03:12:00,40.5,39.7,30.08,WNW,287,0.0,0.0,97,0.00,,---,0.00,VWS V13.01,2013-09-15 07:12:00,
2013-09-15 03:17:00,40.6,39.8,30.08,WNW,287,0.0,0.0,97,0.00,,---,0.00,VWS V13.01,2013-09-15 07:17:00,
2013-09-15 03:22:00,40.6,39.8,30.08,WNW,287,0.0,0.0,97,0.00,,---,0.00,VWS V13.01,2013-09-15 07:22:00,
2013-09-15 03:28:00,40.6,39.8,30.07,WNW,287,0.0,0.0,97,0.00,,---,0.00,VWS V13.01,2013-09-15 07:28:00,
2013-09-15 03:33:00,40.6,39.8,30.07,WNW,287,0.0,0.0,97,0.00,,---,0.00,VWS V13.01,2013-09-15 07:33:00,
2013-09-15 03:38:00,40.5,39.7,30.07,WNW,287,0.0,1.0,97,0.00,,---,0.00,VWS V13.01,2013-09-15 07:38:00,
2013-09-15 03:43:00,40.4,39.6,30.07,WNW,287,0.0,1.0,97,0.00,,---,0.00,VWS V13.01,2013-09-15 07:43:00,
2013-09-15 03:48:00,40.5,40.0,30.08,WNW,287,0.0,1.0,98,0.00,,---,0.00,VWS V13.01,2013-09-15 07:48:00,
2013-09-15 03:53:00,40.6,40.1,30.08,WNW,287,0.0,1.0,98,0.00,,---,0.00,VWS V13.01,2013-09-15 07:53:00,
2013-09-15 03:58:00,40.7,40.2,30.08,WNW,287,0.0,1.0,98,0.00,,---,0.00,VWS V13.01,2013-09-15 07:58:00,
2013-09-15 04:03:00,40.7,39.9,30.08,WNW,287,0.0,0.0,97,0.00,,---,0.00,VWS V13.01,2013-09-15 08:03:00,
2013-09-15 04:08:00,40.8,40.0,30.08,WNW,287,0.0,0.0,97,0.00,,---,0.00,VWS V13.01,2013-09-15 08:08:00,
2013-09-15 04:13:00,40.8,40.3,30.08,WNW,287,0.0,0.0,98,0.00,,---,0.00,VWS V13.01,2013-09-15 08:13:00,
2013-09-15 04:18:00,40.7,40.2,30.09,WNW,287,0.0,0.0,98,0.00,,---,0.00,VWS V13.01,2013-09-15 08:18:00,
2013-09-15 04:23:00,40.6,40.1,30.08,WNW,287,0.0,1.0,98,0.00,,---,0.00,VWS V13.01,2013-09-15 08:23:00,
2013-09-15 04:28:00,40.6,40.1,30.09,WNW,287,0.0,1.0,98,0.00,,---,0.00,VWS V13.01,2013-09-15 08:28:00,
2013-09-15 04:33:00,40.6,40.1,30.09,WNW,287,0.0,0.0,98,0.00,,---,0.00,VWS V13.01,2013-09-15 08:33:00,
2013-09-15 04:39:00,40.5,40.0,30.09,WNW,287,0.0,0.0,98,0.00,,---,0.00,VWS V13.01,2013-09-15 08:39:00,
2013-09-15 04:44:00,40.5,40.0,30.09,WNW,287,0.0,0.0,98,0.00,,---,0.00,VWS V13.01,2013-09-15 08:44:00,
2013-09-15 04:49:00,40.3,39.8,30.09,WNW,287,0.0,0.0,98,0.00,,---,0.00,VWS V13.01,2013-09-15 08:49:00,
2013-09-15 04:54:00,40.4,39.9,30.09,WNW,287,0.0,0.0,98,0.00,,---,0.00,VWS V13.01,2013-09-15 08:54:00,
2013-09-15 04:59:00,40.4,39.9,30.09,WNW,287,0.0,0.0,98,0.00,,---,0.00,VWS V13.01,2013-09-15 08:59:00,
2013-09-15 05:04:00,40.4,39.9,30.09,WNW,287,0.0,1.0,98,0.00,,---,0.00,VWS V13.01,2013-09-15 09:04:00,
2013-09-15 05:09:00,40.3,39.8,30.09,WNW,287,0.0,1.0,98,0.00,,---,0.00,VWS V13.01,2013-09-15 09:09:00,
2013-09-15 05:14:00,40.3,39.8,30.09,WNW,287,0.0,1.0,98,0.00,,---,0.00,VWS V13.01,2013-09-15 09:14:00,
2013-09-15 05:19:00,40.3,39.8,30.09,WNW,287,0.0,1.0,98,0.00,,---,0.00,VWS V13.01,2013-09-15 09:19:00,
2013-09-15 05:24:00,40.0,39.5,30.09,WNW,287,0.0,1.0,98,0.00,,---,0.00,VWS V13.01,2013-09-15 09:24:00,
2013-09-15 05:29:00,39.9,39.4,30.09,WNW,287,0.0,1.0,98,0.00,,---,0.00,VWS V13.01,2013-09-15 09:29:00,
2013-09-15 05:34:00,39.9,39.4,30.09,WNW,287,0.0,0.0,98,0.00,,---,0.00,VWS V13.01,2013-09-15 09:34:00,
2013-09-15 05:39:00,40.0,39.5,30.10,WNW,287,0.0,0.0,98,0.00,,---,0.00,VWS V13.01,2013-09-15 09:39:00,
2013-09-15 05:44:00,40.1,39.6,30.10,WNW,287,0.0,0.0,98,0.00,,---,0.00,VWS V13.01,2013-09-15 09:44:00,
2013-09-15 05:49:00,40.1,39.6,30.10,WNW,287,0.0,1.0,98,0.00,,---,0.00,VWS V13.01,2013-09-15 09:49:00,
2013-09-15 05:54:00,40.1,39.6,30.10,WNW,287,0.0,1.0,98,0.00,,---,0.00,VWS V13.01,2013-09-15 09:54:00,
2013-09-15 06:00:00,40.0,39.5,30.10,WNW,287,0.0,1.0,98,0.00,,---,0.00,VWS V13.01,2013-09-15 10:00:00,
2013-09-15 06:05:00,40.0,39.5,30.09,WNW,287,0.0,0.0,98,0.00,,---,0.00,VWS V13.01,2013-09-15 10:05:00,
2013-09-15 06:10:00,40.0,39.5,30.09,WNW,287,0.0,0.0,98,0.00,,---,0.00,VWS V13.01,2013-09-15 10:10:00,
2013-09-15 06:15:00,40.0,39.5,30.09,WNW,287,0.0,0.0,98,0.00,,---,0.00,VWS V13.01,2013-09-15 10:15:00,
2013-09-15 06:20:00,39.8,39.3,30.10,WNW,287,0.0,0.0,98,0.00,,---,0.00,VWS V13.01,2013-09-15 10:20:00,
2013-09-15 06:25:00,39.7,39.2,30.10,WNW,287,0.0,0.0,98,0.00,,---,0.00,VWS V13.01,2013-09-15 10:25:00,
2013-09-15 06:30:00,39.7,39.2,30.10,WNW,287,0.0,0.0,98,0.00,,---,0.00,VWS V13.01,2013-09-15 10:30:00,
2013-09-15 06:35:00,39.7,39.2,30.10,WNW,287,0.0,0.0,98,0.00,,---,0.00,VWS V13.01,2013-09-15 10:35:00,
2013-09-15 06:40:00,39.7,39.2,30.10,WNW,287,0.0,0.0,98,0.00,,---,0.00,VWS V13.01,2013-09-15 10:40:00,
2013-09-15 06:45:00,39.7,39.2,30.10,WNW,287,0.0,0.0,98,0.00,,---,0.00,VWS V13.01,2013-09-15 10:45:00,
2013-09-15 06:50:00,39.7,39.2,30.10,WNW,287,0.0,0.0,98,0.00,,---,0.00,VWS V13.01,2013-09-15 10:50:00,
2013-09-15 06:55:00,39.7,39.2,30.10,WNW,287,0.0,0.0,98,0.00,,---,0.00,VWS V13.01,2013-09-15 10:55:00,
2013-09-15 07:00:00,39.7,39.2,30.11,WNW,287,0.0,0.0,98,0.00,,---,0.00,VWS V13.01,2013-09-15 11:00:00,
2013-09-15 07:05:00,39.7,39.2,30.11,WNW,287,0.0,0.0,98,0.00,,---,0.00,VWS V13.01,2013-09-15 11:05:00,
2013-09-15 07:10:00,39.7,39.2,30.11,WNW,287,0.0,0.0,98,0.00,,---,0.00,VWS V13.01,2013-09-15 11:10:00,
2013-09-15 07:15:00,39.7,39.2,30.11,WNW,287,0.0,0.0,98,0.00,,---,0.00,VWS V13.01,2013-09-15 11:15:00,
2013-09-15 07:20:00,39.7,39.2,30.12,WNW,287,0.0,0.0,98,0.00,,---,0.00,VWS V13.01,2013-09-15 11:20:00,
2013-09-15 07:25:00,39.7,39.2,30.12,WNW,287,0.0,1.0,98,0.00,,---,0.00,VWS V13.01,2013-09-15 11:25:00,
2013-09-15 07:31:00,39.7,39.2,30.13,WNW,287,0.0,0.0,98,0.00,,---,0.00,VWS V13.01,2013-09-15 11:31:00,
2013-09-15 07:36:00,39.7,39.2,30.13,WNW,287,0.0,0.0,98,0.00,,---,0.00,VWS V13.01,2013-09-15 11:36:00,
2013-09-15 07:41:00,39.7,39.2,30.12,WNW,287,0.0,0.0,98,0.00,,---,0.00,VWS V13.01,2013-09-15 11:41:00,
2013-09-15 07:46:00,39.7,39.2,30.12,WNW,287,0.0,0.0,98,0.00,,---,0.00,VWS V13.01,2013-09-15 11:46:00,
2013-09-15 07:51:00,39.7,39.2,30.12,WNW,287,0.0,0.0,98,0.00,,---,0.00,VWS V13.01,2013-09-15 11:51:00,
2013-09-15 07:56:00,39.7,39.2,30.12,WNW,287,0.0,0.0,98,0.00,,---,0.00,VWS V13.01,2013-09-15 11:56:00,
2013-09-15 08:01:00,39.7,39.2,30.12,WNW,287,0.0,0.0,98,0.00,,---,0.00,VWS V13.01,2013-09-15 12:01:00,
2013-09-15 08:06:00,39.7,39.2,30.12,WNW,287,0.0,0.0,98,0.00,,---,0.00,VWS V13.01,2013-09-15 12:06:00,
2013-09-15 08:11:00,39.7,39.2,30.12,WNW,287,0.0,0.0,98,0.00,,---,0.00,VWS V13.01,2013-09-15 12:11:00,
2013-09-15 08:16:00,39.7,39.2,30.12,WNW,287,0.0,0.0,98,0.00,,---,0.00,VWS V13.01,2013-09-15 12:16:00,
2013-09-15 08:21:00,39.7,39.2,30.12,WNW,287,0.0,1.0,98,0.00,,---,0.00,VWS V13.01,2013-09-15 12:21:00,
2013-09-15 08:26:00,39.7,39.2,30.12,WNW,287,0.0,1.0,98,0.00,,---,0.00,VWS V13.01,2013-09-15 12:26:00,
2013-09-15 08:31:00,39.7,39.2,30.12,WNW,287,0.0,0.0,98,0.00,,---,0.00,VWS V13.01,2013-09-15 12:31:00,
2013-09-15 08:36:00,39.7,39.2,30.12,WNW,287,0.0,0.0,98,0.00,,---,0.00,VWS V13.01,2013-09-15 12:36:00,
2013-09-15 08:41:00,39.7,39.2,30.12,WNW,287,0.0,0.0,98,0.00,,---,0.00,VWS V13.01,2013-09-15 12:41:00,
2013-09-15 08:47:00,39.7,39.2,30.12,WNW,287,0.0,0.0,98,0.00,,---,0.00,VWS V13.01,2013-09-15 12:47:00,
2013-09-15 08:52:00,39.7,39.2,30.12,WNW,287,0.0,0.0,98,0.00,,---,0.00,VWS V13.01,2013-09-15 12:52:00,
2013-09-15 08:57:00,39.7,39.2,30.12,WNW,287,0.0,0.0,98,0.00,,---,0.00,VWS V13.01,2013-09-15 12:57:00,
2013-09-15 09:02:00,39.7,39.2,30.12,WNW,287,0.0,0.0,98,0.00,,---,0.00,VWS V13.01,2013-09-15 13:02:00,
2013-09-15 09:07:00,39.7,39.2,30.12,WNW,287,0.0,0.0,98,0.00,,---,0.00,VWS V13.01,2013-09-15 13:07:00,
2013-09-15 09:12:00,39.7,39.2,30.12,WNW,287,0.0,0.0,98,0.00,,---,0.00,VWS V13.01,2013-09-15 13:12:00,
2013-09-15 09:17:00,39.7,39.2,30.12,WNW,287,0.0,1.0,98,0.00,,---,0.00,VWS V13.01,2013-09-15 13:17:00,
2013-09-15 09:22:00,39.7,39.2,30.12,WNW,287,0.0,1.0,98,0.00,,---,0.00,VWS V13.01,2013-09-15 13:22:00,
2013-09-15 09:27:00,39.7,39.2,30.12,WNW,287,0.0,1.0,98,0.00,,---,0.00,VWS V13.01,2013-09-15 13:27:00,
2013-09-15 09:32:00,39.7,39.2,30.12,WNW,287,0.0,0.0,98,0.00,,---,0.00,VWS V13.01,2013-09-15 13:32:00,
2013-09-15 09:37:00,39.7,39.2,30.12,WNW,287,0.0,1.0,98,0.00,,---,0.00,VWS V13.01,2013-09-15 13:37:00,
2013-09-15 09:42:00,39.7,39.2,30.12,WNW,287,0.0,4.0,98,0.00,,---,0.00,VWS V13.01,2013-09-15 13:42:00,
2013-09-15 09:47:00,39.7,39.2,30.12,WNW,287,0.0,4.0,98,0.00,,---,0.00,VWS V13.01,2013-09-15 13:47:00,
2013-09-15 09:52:00,39.7,39.2,30.12,WNW,287,0.0,4.0,98,0.00,,---,0.00,VWS V13.01,2013-09-15 13:52:00,
2013-09-15 09:57:00,39.7,39.2,30.12,WNW,287,0.0,4.0,98,0.00,,---,0.00,VWS V13.01,2013-09-15 13:57:00,
2013-09-15 10:02:00,39.7,39.2,30.11,WNW,287,0.0,2.0,98,0.00,,---,0.00,VWS V13.01,2013-09-15 14:02:00,
2013-09-15 10:07:00,39.7,39.2,30.11,WNW,287,0.0,2.0,98,0.00,,---,0.00,VWS V13.01,2013-09-15 14:07:00,
2013-09-15 10:12:00,39.7,39.2,30.11,WNW,287,0.0,2.0,98,0.00,,---,0.00,VWS V13.01,2013-09-15 14:12:00,
2013-09-15 10:18:00,39.7,39.2,30.11,WNW,287,0.0,2.0,98,0.00,,---,0.00,VWS V13.01,2013-09-15 14:18:00,
2013-09-15 10:23:00,39.7,39.2,30.11,WNW,287,0.0,2.0,98,0.00,,---,0.00,VWS V13.01,2013-09-15 14:23:00,
2013-09-15 10:28:00,39.7,39.2,30.11,WNW,287,0.0,2.0,98,0.00,,---,0.00,VWS V13.01,2013-09-15 14:28:00,
2013-09-15 10:33:00,39.7,-90.3,30.11,WNW,287,0.0,1.0,98,0.00,,---,0.00,VWS V13.01,2013-09-15 14:33:00,
2013-09-15 10:38:00,39.7,-90.3,30.11,WNW,287,0.0,1.0,98,0.00,,---,0.00,VWS V13.01,2013-09-15 14:38:00,
2013-09-15 10:43:00,39.7,-90.3,30.11,WNW,287,0.0,1.0,98,0.00,,---,0.00,VWS V13.01,2013-09-15 14:43:00,
2013-09-15 10:48:00,39.7,-90.3,30.11,WNW,287,0.0,1.0,98,0.00,,---,0.00,VWS V13.01,2013-09-15 14:48:00,
2013-09-15 10:53:00,39.7,-90.3,30.12,WNW,287,0.0,1.0,98,0.00,,---,0.00,VWS V13.01,2013-09-15 14:53:00,
2013-09-15 10:58:00,39.7,-90.3,30.12,WNW,287,0.0,1.0,98,0.00,,---,0.00,VWS V13.01,2013-09-15 14:58:00,
2013-09-15 11:03:00,39.7,-90.3,30.12,WNW,287,0.0,0.0,98,0.00,,---,0.00,VWS V13.01,2013-09-15 15:03:00,
2013-09-15 11:08:00,39.7,-90.3,30.13,WNW,287,0.0,0.0,98,0.00,,---,0.00,VWS V13.01,2013-09-15 15:08:00,
2013-09-15 11:13:00,56.9,52.4,30.13,WNW,287,0.0,1.0,85,0.00,,---,0.00,VWS V13.01,2013-09-15 15:13:00,
2013-09-15 11:18:00,57.3,51.9,30.14,WNW,287,0.0,1.0,82,0.00,,---,0.00,VWS V13.01,2013-09-15 15:18:00,
2013-09-15 11:23:00,58.2,51.4,30.13,WNW,287,3.0,5.0,78,0.00,,---,0.00,VWS V13.01,2013-09-15 15:23:00,
2013-09-15 11:28:00,58.9,50.6,30.13,WNW,287,5.0,6.0,74,0.00,,---,0.00,VWS V13.01,2013-09-15 15:28:00,
2013-09-15 11:34:00,59.0,50.4,30.13,WNW,287,4.0,6.0,73,0.00,,---,0.00,VWS V13.01,2013-09-15 15:34:00,
2013-09-15 11:39:00,59.0,49.6,30.13,WNW,287,0.0,6.0,71,0.00,,---,0.00,VWS V13.01,2013-09-15 15:39:00,
2013-09-15 11:44:00,59.0,49.6,30.13,WNW,287,0.0,6.0,71,0.00,,---,0.00,VWS V13.01,2013-09-15 15:44:00,
2013-09-15 11:49:00,59.6,50.2,30.13,WNW,287,0.0,6.0,71,0.00,,---,0.00,VWS V13.01,2013-09-15 15:49:00,
2013-09-15 11:54:00,59.9,50.1,30.13,WNW,287,0.0,7.0,70,0.00,,---,0.00,VWS V13.01,2013-09-15 15:54:00,
2013-09-15 11:59:00,60.3,50.9,30.13,WNW,287,4.0,7.0,71,0.00,,---,0.00,VWS V13.01,2013-09-15 15:59:00,
2013-09-15 12:04:00,60.5,49.9,30.12,WNW,287,0.0,6.0,68,0.00,,---,0.00,VWS V13.01,2013-09-15 16:04:00,
2013-09-15 12:09:00,60.8,50.2,30.12,WNW,287,0.0,6.0,68,0.00,,---,0.00,VWS V13.01,2013-09-15 16:09:00,
2013-09-15 12:14:00,61.0,51.2,30.12,WNW,287,4.0,6.0,70,0.00,,---,0.00,VWS V13.01,2013-09-15 16:14:00,
2013-09-15 12:19:00,61.2,49.8,30.12,WNW,287,0.0,6.0,66,0.00,,---,0.00,VWS V13.01,2013-09-15 16:19:00,
2013-09-15 12:24:00,61.6,50.5,30.11,WNW,287,0.0,6.0,67,0.00,,---,0.00,VWS V13.01,2013-09-15 16:24:00,
2013-09-15 12:29:00,62.4,50.5,30.11,WNW,287,0.0,6.0,65,0.00,,---,0.00,VWS V13.01,2013-09-15 16:29:00,
2013-09-15 12:34:00,62.7,50.4,30.11,WNW,287,0.0,1.0,64,0.00,,---,0.00,VWS V13.01,2013-09-15 16:34:00,
2013-09-15 12:39:00,63.4,50.6,30.11,WNW,287,0.0,1.0,63,0.00,,---,0.00,VWS V13.01,2013-09-15 16:39:00,
2013-09-15 12:44:00,63.9,50.6,30.11,WNW,287,0.0,5.0,62,0.00,,---,0.00,VWS V13.01,2013-09-15 16:44:00,
2013-09-15 12:49:00,64.0,49.4,30.11,WNW,286,1.0,7.0,59,0.00,,---,0.00,VWS V13.01,2013-09-15 16:49:00,
2013-09-15 12:54:00,64.0,50.3,30.10,WNW,286,0.0,7.0,61,0.00,,---,0.00,VWS V13.01,2013-09-15 16:54:00,
2013-09-15 13:00:00,64.3,50.1,30.10,WNW,283,5.0,7.0,60,0.00,,---,0.00,VWS V13.01,2013-09-15 17:00:00,
2013-09-15 13:05:00,64.5,51.2,30.09,WNW,283,0.0,5.0,62,0.00,,---,0.00,VWS V13.01,2013-09-15 17:05:00,
2013-09-15 13:10:00,64.4,50.7,30.09,West,275,0.0,5.0,61,0.00,,---,0.00,VWS V13.01,2013-09-15 17:10:00,
2013-09-15 13:15:00,64.2,50.0,30.09,South,171,4.0,8.0,60,0.00,,---,0.00,VWS V13.01,2013-09-15 17:15:00,
2013-09-15 13:20:00,63.9,50.6,30.09,SW,215,6.0,8.0,62,0.00,,---,0.00,VWS V13.01,2013-09-15 17:20:00,
2013-09-15 13:25:00,63.8,50.1,30.09,WSW,240,0.0,8.0,61,0.00,,---,0.00,VWS V13.01,2013-09-15 17:25:00,
2013-09-15 13:30:00,64.1,50.0,30.09,WSW,240,1.0,1.0,60,0.00,,---,0.00,VWS V13.01,2013-09-15 17:30:00,
2013-09-15 13:35:00,64.5,50.3,30.09,WSW,240,0.0,2.0,60,0.00,,---,0.00,VWS V13.01,2013-09-15 17:35:00,
2013-09-15 13:40:00,64.7,51.0,30.09,WSW,240,0.0,2.0,61,0.00,,---,0.00,VWS V13.01,2013-09-15 17:40:00,
2013-09-15 13:45:00,64.8,50.6,30.09,WSW,240,0.0,2.0,60,0.00,,---,0.00,VWS V13.01,2013-09-15 17:45:00,
2013-09-15 13:46:00,64.7,51.4,30.09,WSW,240,0.0,2.0,62,0.00,,---,0.00,VWS V13.01,2013-09-15 17:46:00,
2013-09-15 13:51:00,64.1,50.8,30.09,WSW,240,0.0,2.0,62,0.00,,---,0.00,VWS V13.01,2013-09-15 17:51:00,
2013-09-15 13:56:00,63.8,51.0,30.09,SW,236,5.0,5.0,63,0.00,,---,0.00,VWS V13.01,2013-09-15 17:56:00,
2013-09-15 14:01:00,63.6,50.4,30.08,SW,234,0.0,0.0,62,0.00,,---,0.00,VWS V13.01,2013-09-15 18:01:00,
2013-09-15 14:06:00,64.0,51.2,30.07,SW,234,0.0,1.0,63,0.00,,---,0.00,VWS V13.01,2013-09-15 18:06:00,
2013-09-15 14:11:00,64.0,50.3,30.08,SSW,211,5.0,10.0,61,0.00,,---,0.00,VWS V13.01,2013-09-15 18:11:00,
2013-09-15 14:16:00,64.0,48.5,30.07,WSW,244,2.0,10.0,57,0.00,,---,0.00,VWS V13.01,2013-09-15 18:16:00,
2013-09-15 14:22:00,64.2,49.6,30.07,WSW,244,2.0,10.0,59,0.00,,---,0.00,VWS V13.01,2013-09-15 18:22:00,
2013-09-15 14:27:00,64.3,50.1,30.07,WSW,244,0.0,10.0,60,0.00,,---,0.00,VWS V13.01,2013-09-15 18:27:00,
2013-09-15 14:32:00,64.4,49.3,30.07,WSW,245,2.0,7.0,58,0.00,,---,0.00,VWS V13.01,2013-09-15 18:32:00,
2013-09-15 14:37:00,64.2,50.0,30.07,SW,232,5.0,8.0,60,0.00,,---,0.00,VWS V13.01,2013-09-15 18:37:00,
2013-09-15 14:42:00,64.2,49.6,30.07,WSW,252,3.0,8.0,59,0.00,,---,0.00,VWS V13.01,2013-09-15 18:42:00,
2013-09-15 14:47:00,64.3,49.7,30.07,WSW,252,0.0,8.0,59,0.00,,---,0.00,VWS V13.01,2013-09-15 18:47:00,
2013-09-15 14:52:00,64.7,50.1,30.06,WSW,252,0.0,8.0,59,0.00,,---,0.00,VWS V13.01,2013-09-15 18:52:00,
2013-09-15 14:57:00,64.9,49.3,30.07,WSW,250,0.0,8.0,57,0.00,,---,0.00,VWS V13.01,2013-09-15 18:57:00,
2013-09-15 15:02:00,65.2,50.1,30.07,WSW,254,0.0,6.0,58,0.00,,---,0.00,VWS V13.01,2013-09-15 19:02:00,
2013-09-15 15:07:00,65.7,51.0,30.07,WNW,283,7.0,8.0,59,0.00,,---,0.00,VWS V13.01,2013-09-15 19:07:00,
2013-09-15 15:12:00,65.6,51.8,30.06,South,183,3.0,9.0,61,0.00,,---,0.00,VWS V13.01,2013-09-15 19:12:00,
2013-09-15 15:17:00,65.4,48.8,30.06,WNW,298,0.0,10.0,55,0.00,,---,0.00,VWS V13.01,2013-09-15 19:17:00,
2013-09-15 15:18:00,65.4,48.8,30.06,West,279,3.0,10.0,55,0.00,,---,0.00,VWS V13.01,2013-09-15 19:18:00,
2013-09-15 15:23:00,65.3,48.7,30.06,West,277,0.0,10.0,55,0.00,,---,0.00,VWS V13.01,2013-09-15 19:23:00,
2013-09-15 15:28:00,65.6,50.4,30.06,West,267,0.0,10.0,58,0.00,,---,0.00,VWS V13.01,2013-09-15 19:28:00,
2013-09-15 15:33:00,65.5,48.9,30.06,West,272,2.0,6.0,55,0.00,,---,0.00,VWS V13.01,2013-09-15 19:33:00,
2013-09-15 15:38:00,65.3,48.7,30.06,West,265,4.0,7.0,55,0.00,,---,0.00,VWS V13.01,2013-09-15 19:38:00,
2013-09-15 15:43:00,65.2,48.6,30.05,West,265,0.0,7.0,55,0.00,,---,0.00,VWS V13.01,2013-09-15 19:43:00,
2013-09-15 15:48:00,65.6,50.4,30.06,West,265,0.0,7.0,58,0.00,,---,0.00,VWS V13.01,2013-09-15 19:48:00,
2013-09-15 15:53:00,65.7,50.5,30.05,WSW,240,0.0,7.0,58,0.00,,---,0.00,VWS V13.01,2013-09-15 19:53:00,
2013-09-15 15:58:00,66.1,50.0,30.05,SW,234,0.0,7.0,56,0.00,,---,0.00,VWS V13.01,2013-09-15 19:58:00,
2013-09-15 16:04:00,66.3,51.1,30.05,WSW,244,3.0,8.0,58,0.00,,---,0.00,VWS V13.01,2013-09-15 20:04:00,
2013-09-15 16:09:00,66.3,51.1,30.05,WSW,240,0.0,8.0,58,0.00,,---,0.00,VWS V13.01,2013-09-15 20:09:00,
2013-09-15 16:14:00,66.8,51.1,30.05,WSW,237,0.0,8.0,57,0.00,,---,0.00,VWS V13.01,2013-09-15 20:14:00,
2013-09-15 16:19:00,67.3,50.6,30.05,WSW,238,0.0,8.0,55,0.00,,---,0.00,VWS V13.01,2013-09-15 20:19:00,
2013-09-15 16:24:00,66.9,50.7,30.04,WSW,251,4.0,8.0,56,0.00,,---,0.00,VWS V13.01,2013-09-15 20:24:00,
2013-09-15 16:29:00,66.3,50.2,30.05,South,184,0.0,8.0,56,0.00,,---,0.00,VWS V13.01,2013-09-15 20:29:00,
2013-09-15 16:34:00,66.0,50.3,30.04,SSE,155,5.0,9.0,57,0.00,,---,0.00,VWS V13.01,2013-09-15 20:34:00,
2013-09-15 16:39:00,65.6,50.4,30.04,SSE,156,0.0,9.0,58,0.00,,---,0.00,VWS V13.01,2013-09-15 20:39:00,
2013-09-15 16:44:00,65.4,49.8,30.04,SSW,195,0.0,9.0,57,0.00,,---,0.00,VWS V13.01,2013-09-15 20:44:00,
2013-09-15 16:49:00,65.1,50.0,30.05,SW,215,1.0,9.0,58,0.00,,---,0.00,VWS V13.01,2013-09-15 20:49:00,
2013-09-15 16:54:00,64.6,52.2,30.04,SW,216,2.0,9.0,64,0.00,,---,0.00,VWS V13.01,2013-09-15 20:54:00,
2013-09-15 16:59:00,64.2,54.6,30.04,SW,216,2.0,9.0,71,0.00,,---,0.00,VWS V13.01,2013-09-15 20:59:00,
2013-09-15 17:04:00,63.6,52.9,30.04,SW,215,0.0,5.0,68,0.00,,---,0.00,VWS V13.01,2013-09-15 21:04:00,
2013-09-15 17:09:00,63.2,54.4,30.04,SW,216,0.0,5.0,73,0.00,,---,0.00,VWS V13.01,2013-09-15 21:09:00,
2013-09-15 17:15:00,62.7,54.7,30.04,SW,216,0.0,5.0,75,0.00,,---,0.00,VWS V13.01,2013-09-15 21:15:00,
2013-09-15 17:20:00,62.3,55.4,30.05,SW,216,0.0,5.0,78,0.00,,---,0.00,VWS V13.01,2013-09-15 21:20:00,
2013-09-15 17:25:00,61.9,55.3,30.04,SW,215,0.0,5.0,79,0.00,,---,0.00,VWS V13.01,2013-09-15 21:25:00,
2013-09-15 17:30:00,61.6,55.0,30.05,SW,215,0.0,0.0,79,0.00,,---,0.00,VWS V13.01,2013-09-15 21:30:00,
2013-09-15 17:35:00,61.1,54.9,30.05,SW,216,0.0,1.0,80,0.00,,---,0.00,VWS V13.01,2013-09-15 21:35:00,
2013-09-15 17:40:00,60.9,54.7,30.04,SW,216,0.0,2.0,80,0.00,,---,0.00,VWS V13.01,2013-09-15 21:40:00,
2013-09-15 17:45:00,60.8,54.9,30.04,SW,216,2.0,2.0,81,0.00,,---,0.00,VWS V13.01,2013-09-15 21:45:00,
2013-09-15 17:50:00,60.3,54.1,30.03,SW,216,0.0,2.0,80,0.00,,---,0.00,VWS V13.01,2013-09-15 21:50:00,
2013-09-15 17:55:00,60.0,54.2,30.03,SW,216,0.0,2.0,81,0.00,,---,0.00,VWS V13.01,2013-09-15 21:55:00,
2013-09-15 18:00:00,59.9,53.7,30.04,SW,216,1.0,2.0,80,0.00,,---,0.00,VWS V13.01,2013-09-15 22:00:00,
2013-09-15 18:05:00,59.7,53.5,30.04,SW,216,1.0,2.0,80,0.00,,---,0.00,VWS V13.01,2013-09-15 22:05:00,
2013-09-15 18:10:00,59.7,53.9,30.04,SW,216,0.0,2.0,81,0.00,,---,0.00,VWS V13.01,2013-09-15 22:10:00,
2013-09-15 18:15:00,59.7,54.2,30.05,SW,215,0.0,2.0,82,0.00,,---,0.00,VWS V13.01,2013-09-15 22:15:00,
2013-09-15 18:21:00,59.8,54.3,30.04,SW,216,0.0,2.0,82,0.00,,---,0.00,VWS V13.01,2013-09-15 22:21:00,
2013-09-15 18:26:00,59.8,54.6,30.04,SW,216,0.0,2.0,83,0.00,,---,0.00,VWS V13.01,2013-09-15 22:26:00,
2013-09-15 18:31:00,59.5,54.3,30.04,SW,216,0.0,0.0,83,0.00,,---,0.00,VWS V13.01,2013-09-15 22:31:00,
2013-09-15 18:36:00,59.3,53.8,30.04,SW,215,0.0,0.0,82,0.00,,---,0.00,VWS V13.01,2013-09-15 22:36:00,
2013-09-15 18:41:00,59.0,52.8,30.04,SW,215,0.0,0.0,80,0.00,,---,0.00,VWS V13.01,2013-09-15 22:41:00,
2013-09-15 18:46:00,58.7,52.9,30.04,SW,216,0.0,0.0,81,0.00,,---,0.00,VWS V13.01,2013-09-15 22:46:00,
2013-09-15 18:51:00,58.4,52.9,30.03,SW,216,0.0,0.0,82,0.00,,---,0.00,VWS V13.01,2013-09-15 22:51:00,
2013-09-15 18:56:00,58.3,52.5,30.04,SW,215,0.0,0.0,81,0.00,,---,0.00,VWS V13.01,2013-09-15 22:56:00,
2013-09-15 19:01:00,58.2,53.1,30.04,SW,216,2.0,3.0,83,0.00,,---,0.00,VWS V13.01,2013-09-15 23:01:00,
2013-09-15 19:06:00,57.8,52.7,30.04,SW,216,0.0,3.0,83,0.00,,---,0.00,VWS V13.01,2013-09-15 23:06:00,
2013-09-15 19:11:00,57.6,52.5,30.04,SW,215,0.0,3.0,83,0.00,,---,0.00,VWS V13.01,2013-09-15 23:11:00,
2013-09-15 19:16:00,57.2,52.4,30.04,SW,216,0.0,3.0,84,0.00,,---,0.00,VWS V13.01,2013-09-15 23:16:00,
2013-09-15 19:22:00,57.1,52.6,30.04,SW,216,0.0,3.0,85,0.00,,---,0.00,VWS V13.01,2013-09-15 23:22:00,
2013-09-15 19:27:00,56.9,52.8,30.03,SW,216,0.0,3.0,86,0.00,,---,0.00,VWS V13.01,2013-09-15 23:27:00,
2013-09-15 19:32:00,56.8,53.0,30.03,SW,215,0.0,0.0,87,0.00,,---,0.00,VWS V13.01,2013-09-15 23:32:00,
2013-09-15 19:37:00,56.6,53.1,30.03,SW,216,0.0,0.0,88,0.00,,---,0.00,VWS V13.01,2013-09-15 23:37:00,
2013-09-15 19:42:00,56.5,53.0,30.04,SW,216,0.0,1.0,88,0.00,,---,0.00,VWS V13.01,2013-09-15 23:42:00,
2013-09-15 19:47:00,56.2,52.4,30.03,SW,216,0.0,1.0,87,0.00,,---,0.00,VWS V13.01,2013-09-15 23:47:00,
2013-09-15 19:52:00,56.0,52.5,30.03,SW,216,0.0,1.0,88,0.00,,---,0.00,VWS V13.01,2013-09-15 23:52:00,
2013-09-15 19:57:00,55.9,52.4,30.03,SW,216,0.0,1.0,88,0.00,,---,0.00,VWS V13.01,2013-09-15 23:57:00,
2013-09-15 20:02:00,55.8,52.3,30.04,SW,216,0.0,0.0,88,0.00,,---,0.00,VWS V13.01,2013-09-16 00:02:00,
2013-09-15 20:07:00,55.9,52.4,30.04,SW,216,0.0,0.0,88,0.00,,---,0.00,VWS V13.01,2013-09-16 00:07:00,
2013-09-15 20:12:00,55.9,52.7,30.03,SW,215,0.0,0.0,89,0.00,,---,0.00,VWS V13.01,2013-09-16 00:12:00,
2013-09-15 20:18:00,55.8,52.6,30.03,SW,216,0.0,0.0,89,0.00,,---,0.00,VWS V13.01,2013-09-16 00:18:00,
2013-09-15 20:23:00,55.6,52.4,30.03,SW,216,0.0,0.0,89,0.00,,---,0.00,VWS V13.01,2013-09-16 00:23:00,
2013-09-15 20:28:00,55.5,52.3,30.03,SW,216,0.0,0.0,89,0.00,,---,0.00,VWS V13.01,2013-09-16 00:28:00,
2013-09-15 20:33:00,55.5,52.6,30.04,SW,216,0.0,0.0,90,0.00,,---,0.00,VWS V13.01,2013-09-16 00:33:00,
2013-09-15 20:38:00,55.5,52.9,30.04,SW,216,0.0,0.0,91,0.00,,---,0.00,VWS V13.01,2013-09-16 00:38:00,
2013-09-15 20:43:00,55.5,52.9,30.05,SW,215,0.0,1.0,91,0.00,,---,0.00,VWS V13.01,2013-09-16 00:43:00,
2013-09-15 20:48:00,55.3,52.4,30.06,SW,215,0.0,1.0,90,0.00,,---,0.00,VWS V13.01,2013-09-16 00:48:00,
2013-09-15 20:53:00,55.3,52.4,30.06,SW,216,0.0,1.0,90,0.00,,---,0.00,VWS V13.01,2013-09-16 00:53:00,
2013-09-15 20:58:00,55.4,52.8,30.06,SW,215,0.0,1.0,91,0.00,,---,0.00,VWS V13.01,2013-09-16 00:58:00,
2013-09-15 21:03:00,55.3,52.7,30.06,SW,215,0.0,0.0,91,0.00,,---,0.00,VWS V13.01,2013-09-16 01:03:00,
2013-09-15 21:08:00,55.3,52.7,30.06,SW,215,0.0,0.0,91,0.00,,---,0.00,VWS V13.01,2013-09-16 01:08:00,
2013-09-15 21:14:00,55.2,52.6,30.06,SW,216,0.0,0.0,91,0.00,,---,0.00,VWS V13.01,2013-09-16 01:14:00,
2013-09-15 21:19:00,55.2,52.9,30.07,SW,216,0.0,0.0,92,0.00,,---,0.00,VWS V13.01,2013-09-16 01:19:00,
2013-09-15 21:24:00,55.1,52.8,30.06,SW,216,0.0,0.0,92,0.00,,---,0.00,VWS V13.01,2013-09-16 01:24:00,
2013-09-15 21:29:00,55.1,52.8,30.07,SW,216,0.0,0.0,92,0.00,,---,0.00,VWS V13.01,2013-09-16 01:29:00,
2013-09-15 21:34:00,55.1,52.8,30.07,SW,216,0.0,0.0,92,0.00,,---,0.00,VWS V13.01,2013-09-16 01:34:00,
2013-09-15 21:39:00,55.2,52.9,30.06,SW,216,0.0,0.0,92,0.00,,---,0.00,VWS V13.01,2013-09-16 01:39:00,
2013-09-15 21:44:00,55.0,52.7,30.06,SW,216,0.0,0.0,92,0.00,,---,0.00,VWS V13.01,2013-09-16 01:44:00,
2013-09-15 21:49:00,54.9,52.9,30.06,SW,216,0.0,0.0,93,0.00,,---,0.00,VWS V13.01,2013-09-16 01:49:00,
2013-09-15 21:54:00,54.8,52.8,30.06,SW,216,0.0,0.0,93,0.00,,---,0.00,VWS V13.01,2013-09-16 01:54:00,
2013-09-15 21:59:00,54.6,52.6,30.06,SW,216,0.0,0.0,93,0.00,,---,0.00,VWS V13.01,2013-09-16 01:59:00,
2013-09-15 22:04:00,54.6,52.6,30.06,SW,216,0.0,0.0,93,0.00,,---,0.00,VWS V13.01,2013-09-16 02:04:00,
2013-09-15 22:09:00,54.5,52.5,30.06,SW,216,0.0,0.0,93,0.00,,---,0.00,VWS V13.01,2013-09-16 02:09:00,
2013-09-15 22:15:00,54.5,52.8,30.06,SW,216,0.0,0.0,94,0.00,,---,0.00,VWS V13.01,2013-09-16 02:15:00,
2013-09-15 22:20:00,54.5,52.8,30.06,SW,215,0.0,0.0,94,0.00,,---,0.00,VWS V13.01,2013-09-16 02:20:00,
2013-09-15 22:25:00,54.5,52.8,30.06,SW,215,0.0,1.0,94,0.00,,---,0.00,VWS V13.01,2013-09-16 02:25:00,
2013-09-15 22:30:00,54.4,52.7,30.06,SW,216,0.0,0.0,94,0.00,,---,0.00,VWS V13.01,2013-09-16 02:30:00,
2013-09-15 22:35:00,54.4,53.0,30.06,SW,215,0.0,0.0,95,0.00,,---,0.00,VWS V13.01,2013-09-16 02:35:00,
2013-09-15 22:40:00,54.5,53.1,30.06,SW,215,0.0,0.0,95,0.00,,---,0.00,VWS V13.01,2013-09-16 02:40:00,
2013-09-15 22:45:00,54.3,52.6,30.06,SW,216,0.0,0.0,94,0.00,,---,0.00,VWS V13.01,2013-09-16 02:45:00,
2013-09-15 22:50:00,54.2,52.8,30.05,SW,216,0.0,0.0,95,0.01,,---,0.01,VWS V13.01,2013-09-16 02:50:00,
2013-09-15 22:56:00,54.2,52.8,30.06,SW,216,0.0,0.0,95,0.01,,---,0.01,VWS V13.01,2013-09-16 02:56:00,
2013-09-15 23:01:00,54.1,52.7,30.05,SW,216,0.0,0.0,95,0.01,,---,0.01,VWS V13.01,2013-09-16 03:01:00,
2013-09-15 23:06:00,54.2,52.8,30.05,SW,216,0.0,0.0,95,0.01,,---,0.01,VWS V13.01,2013-09-16 03:06:00,
2013-09-15 23:11:00,54.1,52.7,30.05,SW,215,0.0,0.0,95,0.01,,---,0.01,VWS V13.01,2013-09-16 03:11:00,
2013-09-15 23:16:00,54.1,52.7,30.05,SW,216,0.0,0.0,95,0.01,,---,0.01,VWS V13.01,2013-09-16 03:16:00,
2013-09-15 23:21:00,54.1,53.0,30.05,SW,216,0.0,0.0,96,0.01,,---,0.01,VWS V13.01,2013-09-16 03:21:00,
2013-09-15 23:27:00,54.0,52.6,30.05,SW,215,0.0,0.0,95,0.01,,---,0.01,VWS V13.01,2013-09-16 03:27:00,
2013-09-15 23:33:00,53.9,52.8,30.04,SW,216,0.0,0.0,96,0.01,,---,0.01,VWS V13.01,2013-09-16 03:33:00,
2013-09-15 23:38:00,54.0,52.9,30.04,SW,216,0.0,0.0,96,0.01,,---,0.01,VWS V13.01,2013-09-16 03:38:00,
2013-09-15 23:43:00,54.0,52.9,30.04,SW,216,0.0,0.0,96,0.01,,---,0.01,VWS V13.01,2013-09-16 03:43:00,
2013-09-15 23:48:00,53.9,52.8,30.03,SW,216,0.0,0.0,96,0.02,,---,0.02,VWS V13.01,2013-09-16 03:48:00,
2013-09-15 23:53:00,53.8,52.7,30.04,SW,215,0.0,0.0,96,0.02,,---,0.02,VWS V13.01,2013-09-16 03:53:00,
2013-09-15 23:58:00,53.8,52.7,30.04,SW,216,0.0,0.0,96,0.02,,---,0.02,VWS V13.01,2013-09-16 03:58:00,